VG21 weather

Irvington Marina Seaplane Base
Irvington, Virginia, United States

Public forecast

Using degrees Fahrenheit for public forecast. Weather courtesy of forecast.io.

Closest aviation weather report (METAR) to Irvington Marina Seaplane Base

Closest report is Middle Peninsula Regional Airport, 17.6 nm (32.6 km) WSW. Retrieved 2020/01/17 18:35 UTC (0 seconds ago):

KFYJ 171835Z AUTO 33007G16KT 300V010 10SM CLR 04/M09 A3070 RMK AO1 T00411089

Closest aviation forecast (TAF) to Irvington Marina Seaplane Base

Closest forecast is Newport News Williamsburg International Airport, 31.7 nm (58.7 km) S. Retrieved 2020/01/17 18:45 UTC (0 seconds ago):

TAF KPHF 171743Z 1718/1818 35011G17KT P6SM SKC FM172300 01007KT P6SM SCT250 FM180600 VRB02KT P6SM BKN200 FM181200 16004KT P6SM BKN150 FM181700 18008KT P6SM BKN120